createdAt,value
2019-03-30T00:02:00.786Z,91.00
2019-03-30T00:04:28.773Z,91.00
2019-03-30T00:06:56.925Z,90.90
2019-03-30T00:09:24.966Z,90.90
2019-03-30T00:11:52.988Z,90.90
2019-03-30T00:14:21.020Z,90.90
2019-03-30T00:16:49.007Z,90.80
2019-03-30T00:19:17.387Z,90.90
2019-03-30T00:21:45.373Z,91.00
2019-03-30T00:24:13.748Z,91.00
2019-03-30T00:26:41.765Z,90.90
2019-03-30T00:29:10.358Z,91.10
2019-03-30T00:31:38.333Z,91.30
2019-03-30T00:34:06.652Z,91.60
2019-03-30T00:36:34.644Z,91.80
2019-03-30T00:39:04.546Z,92.00
2019-03-30T00:41:32.528Z,92.10
2019-03-30T00:44:00.532Z,91.90
2019-03-30T00:46:28.517Z,91.90
2019-03-30T00:48:56.693Z,91.90
2019-03-30T00:51:24.678Z,91.90
2019-03-30T00:53:52.675Z,91.90
2019-03-30T00:56:20.660Z,92.00
2019-03-30T00:58:48.672Z,92.00
2019-03-30T01:01:17.400Z,92.00
2019-03-30T01:03:45.906Z,92.00
2019-03-30T01:06:13.907Z,92.10
2019-03-30T01:08:41.912Z,92.00
2019-03-30T01:11:09.892Z,92.00
2019-03-30T01:13:38.248Z,92.00
2019-03-30T01:16:06.250Z,92.00
2019-03-30T01:18:34.278Z,92.00
2019-03-30T01:21:02.288Z,92.00
2019-03-30T01:23:30.700Z,92.00
2019-03-30T01:25:58.745Z,92.20
2019-03-30T01:28:29.360Z,92.30
2019-03-30T01:30:57.504Z,92.30
2019-03-30T01:33:26.058Z,92.30
2019-03-30T01:35:54.045Z,92.20
2019-03-30T01:38:22.441Z,92.20
2019-03-30T01:40:50.752Z,92.10
2019-03-30T01:43:18.770Z,92.10
2019-03-30T01:45:46.797Z,92.30
2019-03-30T01:48:15.071Z,92.30
2019-03-30T01:50:43.104Z,92.40
2019-03-30T01:53:11.090Z,92.40
2019-03-30T01:55:39.079Z,92.50
2019-03-30T01:58:07.393Z,92.60
2019-03-30T02:00:35.455Z,92.60
2019-03-30T02:03:03.505Z,92.50
2019-03-30T02:05:31.541Z,92.40
2019-03-30T02:07:59.536Z,92.40
2019-03-30T02:10:40.740Z,92.30
2019-03-30T02:13:08.741Z,92.60
2019-03-30T02:15:36.761Z,92.80
2019-03-30T02:18:04.825Z,92.80
2019-03-30T02:20:39.037Z,92.90
2019-03-30T02:23:07.364Z,92.70
2019-03-30T02:25:35.559Z,92.70
2019-03-30T02:28:06.714Z,92.80
2019-03-30T02:30:33.483Z,92.90
2019-03-30T02:33:01.522Z,92.90
2019-03-30T02:35:29.536Z,92.90
2019-03-30T02:37:57.981Z,92.80
2019-03-30T02:40:26.175Z,92.80
2019-03-30T02:42:54.492Z,92.90
2019-03-30T02:45:22.694Z,92.80
2019-03-30T02:47:50.814Z,92.80
2019-03-30T02:50:18.851Z,92.80
2019-03-30T02:52:47.202Z,92.70
2019-03-30T02:55:15.220Z,92.60
2019-03-30T02:57:43.617Z,92.50
2019-03-30T03:00:13.640Z,92.50
2019-03-30T03:02:41.976Z,92.50
2019-03-30T03:05:10.228Z,92.50
2019-03-30T03:07:38.238Z,92.60
2019-03-30T03:10:07.448Z,92.90
2019-03-30T03:12:35.434Z,92.90
2019-03-30T03:15:03.611Z,93.00
2019-03-30T03:17:31.617Z,92.90
2019-03-30T03:19:59.678Z,92.90
2019-03-30T03:22:27.681Z,93.10
2019-03-30T03:24:55.697Z,93.20
2019-03-30T03:27:23.698Z,93.20
2019-03-30T03:29:51.739Z,93.10
2019-03-30T03:32:20.195Z,93.20
2019-03-30T03:34:48.273Z,93.20
2019-03-30T03:37:16.254Z,93.20
2019-03-30T03:39:44.379Z,93.30
2019-03-30T03:42:12.441Z,93.20
2019-03-30T03:44:40.429Z,93.30
2019-03-30T03:47:08.453Z,93.20
2019-03-30T03:49:36.475Z,93.20
2019-03-30T03:52:04.994Z,93.10
2019-03-30T03:54:33.112Z,93.10
2019-03-30T03:57:02.885Z,93.20
2019-03-30T03:59:31.690Z,93.20
2019-03-30T04:02:01.748Z,93.20
2019-03-30T04:04:47.669Z,93.20
2019-03-30T04:07:06.730Z,93.20
2019-03-30T04:09:35.200Z,93.00
2019-03-30T04:12:06.867Z,93.00
2019-03-30T04:14:36.775Z,93.10
2019-03-30T04:17:04.809Z,93.10
2019-03-30T04:19:32.795Z,92.80
2019-03-30T04:22:00.820Z,92.90
2019-03-30T04:24:28.988Z,93.00
2019-03-30T04:26:57.429Z,93.10
2019-03-30T04:29:25.405Z,93.10
2019-03-30T04:31:53.710Z,93.20
2019-03-30T04:34:21.694Z,93.60
2019-03-30T04:36:49.714Z,93.30
2019-03-30T04:39:17.780Z,93.30
2019-03-30T04:41:45.800Z,93.20
2019-03-30T04:44:14.680Z,93.20
2019-03-30T04:46:42.691Z,93.30
2019-03-30T04:49:10.680Z,93.50
2019-03-30T04:51:38.702Z,93.70
2019-03-30T04:54:06.682Z,94.00
2019-03-30T04:56:34.731Z,94.00
2019-03-30T04:59:02.714Z,94.20
2019-03-30T05:01:30.777Z,93.80
2019-03-30T05:03:58.969Z,93.90
2019-03-30T05:06:27.109Z,93.90
2019-03-30T05:08:55.324Z,94.00
2019-03-30T05:11:23.340Z,94.00
2019-03-30T05:13:51.312Z,94.00
2019-03-30T05:16:19.349Z,93.60
2019-03-30T05:18:47.352Z,93.60
2019-03-30T05:21:15.376Z,93.80
2019-03-30T05:23:43.380Z,93.70
2019-03-30T05:26:11.697Z,93.70
2019-03-30T05:28:39.697Z,93.60
2019-03-30T05:31:07.712Z,93.50
2019-03-30T05:33:35.749Z,93.60
2019-03-30T05:36:03.784Z,93.60
2019-03-30T05:38:31.776Z,93.60
2019-03-30T05:40:59.932Z,94.10
2019-03-30T05:43:28.128Z,93.90
2019-03-30T05:45:56.901Z,94.00
2019-03-30T05:48:25.151Z,93.90
2019-03-30T05:50:53.462Z,94.00
2019-03-30T05:53:21.791Z,94.20
2019-03-30T05:55:50.949Z,94.00
2019-03-30T05:58:19.233Z,93.70
2019-03-30T06:00:47.562Z,93.40
2019-03-30T06:03:15.874Z,93.20
2019-03-30T06:05:44.236Z,92.60
2019-03-30T06:08:12.453Z,91.70
2019-03-30T06:10:40.617Z,91.80
2019-03-30T06:13:08.826Z,91.40
2019-03-30T06:15:36.862Z,91.30
2019-03-30T06:18:05.115Z,91.20
2019-03-30T06:20:33.474Z,91.10
2019-03-30T06:23:01.695Z,90.90
2019-03-30T06:25:30.032Z,91.10
2019-03-30T06:28:00.179Z,90.90
2019-03-30T06:30:28.635Z,91.00
2019-03-30T06:33:13.454Z,90.90
2019-03-30T06:35:41.750Z,90.90
2019-03-30T06:38:10.059Z,90.50
2019-03-30T06:40:38.246Z,90.30
2019-03-30T06:43:07.882Z,90.30
2019-03-30T06:45:36.400Z,90.40
2019-03-30T06:48:04.495Z,90.40
2019-03-30T06:50:34.600Z,90.20
2019-03-30T06:53:07.153Z,90.20
2019-03-30T06:55:39.185Z,90.30
2019-03-30T06:58:08.396Z,90.40
2019-03-30T07:00:37.116Z,90.40
2019-03-30T07:03:07.710Z,90.10
2019-03-30T07:05:39.105Z,88.90
2019-03-30T07:08:12.151Z,87.50
2019-03-30T07:10:50.819Z,86.70
2019-03-30T07:13:24.039Z,85.70
2019-03-30T07:15:56.364Z,84.60
2019-03-30T07:18:25.881Z,83.50
2019-03-30T07:21:03.739Z,82.30
2019-03-30T07:23:34.421Z,81.80
2019-03-30T07:26:07.543Z,82.60
2019-03-30T07:28:47.450Z,82.80
2019-03-30T07:31:21.341Z,82.30
2019-03-30T07:33:51.627Z,81.70
2019-03-30T07:36:20.449Z,81.60
2019-03-30T07:38:49.563Z,81.30
2019-03-30T07:41:21.836Z,81.80
2019-03-30T07:43:53.571Z,81.70
2019-03-30T07:46:24.259Z,80.40
2019-03-30T07:48:55.371Z,80.20
2019-03-30T07:51:25.895Z,79.30
2019-03-30T07:53:56.134Z,79.60
2019-03-30T07:56:25.325Z,78.70
2019-03-30T07:58:57.081Z,77.50
2019-03-30T08:01:26.553Z,76.40
2019-03-30T08:04:02.103Z,75.00
2019-03-30T08:06:32.465Z,74.40
2019-03-30T08:09:06.524Z,72.60
2019-03-30T08:11:36.508Z,72.40
2019-03-30T08:14:11.395Z,72.70
2019-03-30T08:16:41.132Z,72.10
2019-03-30T08:19:12.457Z,71.50
2019-03-30T08:21:44.639Z,71.10
2019-03-30T08:24:14.418Z,70.40
2019-03-30T08:26:46.842Z,70.60
2019-03-30T08:29:15.769Z,70.20
2019-03-30T08:31:50.009Z,69.60
2019-03-30T08:34:27.828Z,68.30
2019-03-30T08:36:59.132Z,67.80
2019-03-30T08:39:26.136Z,66.70
2019-03-30T08:41:54.879Z,65.90
2019-03-30T08:44:23.717Z,66.90
2019-03-30T08:46:54.740Z,65.80
2019-03-30T08:49:23.855Z,65.20
2019-03-30T08:51:52.833Z,65.10
2019-03-30T08:54:21.330Z,64.90
2019-03-30T08:56:49.495Z,65.00
2019-03-30T08:59:17.682Z,64.60
2019-03-30T09:01:45.765Z,65.50
2019-03-30T09:04:14.592Z,66.30
2019-03-30T09:06:42.768Z,66.80
2019-03-30T09:09:10.981Z,67.40
2019-03-30T09:11:39.423Z,68.00
2019-03-30T09:14:07.641Z,68.80
2019-03-30T09:16:36.263Z,69.20
2019-03-30T09:19:04.431Z,69.90
2019-03-30T09:21:32.607Z,69.70
2019-03-30T09:24:09.607Z,69.50
2019-03-30T09:26:31.379Z,71.00
2019-03-30T09:28:59.610Z,71.00
2019-03-30T09:31:28.959Z,70.90
2019-03-30T09:33:59.823Z,69.50
2019-03-30T09:36:30.040Z,68.50
2019-03-30T09:38:58.432Z,66.70
2019-03-30T09:41:26.553Z,66.00
2019-03-30T09:43:56.618Z,63.50
2019-03-30T09:46:25.339Z,64.80
2019-03-30T09:48:53.462Z,63.30
2019-03-30T09:51:21.670Z,62.70
2019-03-30T09:53:49.898Z,61.70
2019-03-30T09:56:18.234Z,62.10
2019-03-30T09:58:46.414Z,63.30
2019-03-30T10:01:14.816Z,62.60
2019-03-30T10:03:42.992Z,63.70
2019-03-30T10:06:11.410Z,62.00
2019-03-30T10:08:39.647Z,61.30
2019-03-30T10:11:08.106Z,59.40
2019-03-30T10:13:36.346Z,59.80
2019-03-30T10:16:04.504Z,59.20
2019-03-30T10:18:33.098Z,58.70
2019-03-30T10:21:01.386Z,58.10
2019-03-30T10:23:31.506Z,56.40
2019-03-30T10:26:02.546Z,56.80
2019-03-30T10:28:30.823Z,57.10
2019-03-30T10:31:02.299Z,56.50
2019-03-30T10:33:34.848Z,55.20
2019-03-30T10:36:03.096Z,54.40
2019-03-30T10:38:31.425Z,54.80
2019-03-30T10:41:00.094Z,52.70
2019-03-30T10:43:28.694Z,52.30
2019-03-30T10:45:59.357Z,52.50
2019-03-30T10:48:27.569Z,50.80
2019-03-30T10:50:56.060Z,49.70
2019-03-30T10:53:24.403Z,49.10
2019-03-30T10:55:52.924Z,48.50
2019-03-30T10:58:21.846Z,50.70
2019-03-30T11:00:52.845Z,49.40
2019-03-30T11:03:21.507Z,50.80
2019-03-30T11:05:50.129Z,49.30
2019-03-30T11:08:18.667Z,48.90
2019-03-30T11:10:46.977Z,48.80
2019-03-30T11:13:15.879Z,50.00
2019-03-30T11:15:44.055Z,47.60
2019-03-30T11:18:12.324Z,47.70
2019-03-30T11:20:40.784Z,48.10
2019-03-30T11:23:09.108Z,48.10
2019-03-30T11:25:37.353Z,47.20
2019-03-30T11:28:05.731Z,47.10
2019-03-30T11:30:34.164Z,48.10
2019-03-30T11:33:02.410Z,47.80
2019-03-30T11:35:30.536Z,45.90
2019-03-30T11:37:58.801Z,47.60
2019-03-30T11:40:26.906Z,46.20
2019-03-30T11:45:46.366Z,42.30
2019-03-30T11:48:14.586Z,43.30
2019-03-30T11:50:42.831Z,43.60
2019-03-30T11:53:14.398Z,42.80
2019-03-30T11:55:42.847Z,44.10
2019-03-30T11:58:10.856Z,43.60
2019-03-30T12:00:38.921Z,42.60
2019-03-30T12:03:06.983Z,41.40
2019-03-30T12:05:37.324Z,40.50
2019-03-30T12:08:07.721Z,40.30
2019-03-30T12:10:35.730Z,40.10
2019-03-30T12:13:03.848Z,37.30
2019-03-30T12:15:31.831Z,38.50
2019-03-30T12:17:59.924Z,38.70
2019-03-30T12:20:28.090Z,38.10
2019-03-30T12:22:56.104Z,39.40
2019-03-30T12:25:34.746Z,38.20
2019-03-30T12:27:53.944Z,38.80
2019-03-30T12:30:22.416Z,38.70
2019-03-30T12:32:50.437Z,39.70
2019-03-30T12:35:18.446Z,38.20
2019-03-30T12:37:46.491Z,41.20
2019-03-30T12:40:15.600Z,39.20
2019-03-30T12:42:43.604Z,38.60
2019-03-30T12:45:12.604Z,39.50
2019-03-30T12:47:40.609Z,39.70
2019-03-30T12:50:11.191Z,39.70
2019-03-30T12:52:41.367Z,39.90
2019-03-30T12:55:10.852Z,39.80
2019-03-30T12:57:41.593Z,41.40
2019-03-30T13:00:09.934Z,41.60
2019-03-30T13:02:42.724Z,39.50
2019-03-30T13:05:24.229Z,39.50
2019-03-30T13:07:57.045Z,39.50
2019-03-30T13:10:25.109Z,38.60
2019-03-30T13:12:53.138Z,39.40
2019-03-30T13:15:21.500Z,39.50
2019-03-30T13:17:49.516Z,40.00
2019-03-30T13:20:17.546Z,38.90
2019-03-30T13:22:45.821Z,39.10
2019-03-30T13:25:19.832Z,37.80
2019-03-30T13:27:53.382Z,38.50
2019-03-30T13:30:29.193Z,39.00
2019-03-30T13:32:57.385Z,37.60
2019-03-30T13:35:33.081Z,36.90
2019-03-30T13:38:25.887Z,36.70
2019-03-30T13:41:07.253Z,35.80
2019-03-30T13:43:49.308Z,35.70
2019-03-30T13:46:37.047Z,36.50
2019-03-30T13:49:05.173Z,36.30
2019-03-30T13:51:41.530Z,36.90
2019-03-30T13:54:11.623Z,36.70
2019-03-30T13:56:43.994Z,36.50
2019-03-30T13:59:18.203Z,36.90
2019-03-30T14:01:54.123Z,36.90
2019-03-30T14:04:39.452Z,36.50
2019-03-30T14:07:08.738Z,36.00
2019-03-30T14:09:42.029Z,37.60
2019-03-30T14:12:10.149Z,36.80
2019-03-30T14:14:38.492Z,35.60
2019-03-30T14:17:16.298Z,36.20
2019-03-30T14:19:47.499Z,35.70
2019-03-30T14:22:18.571Z,35.20
2019-03-30T14:25:24.598Z,35.90
2019-03-30T14:28:19.650Z,35.80
2019-03-30T14:30:52.114Z,36.40
2019-03-30T14:33:20.329Z,35.60
2019-03-30T14:35:48.409Z,35.10
2019-03-30T14:38:16.511Z,34.30
2019-03-30T14:40:46.676Z,34.30
2019-03-30T14:43:15.109Z,34.10
2019-03-30T14:45:46.204Z,34.10
2019-03-30T14:48:14.221Z,34.30
2019-03-30T14:50:42.337Z,34.20
2019-03-30T14:53:10.743Z,34.90
2019-03-30T14:55:39.682Z,35.20
2019-03-30T14:58:09.166Z,35.30
2019-03-30T15:00:37.298Z,34.90
2019-03-30T15:03:05.829Z,34.40
2019-03-30T15:05:36.856Z,34.60
2019-03-30T15:08:04.846Z,34.70
2019-03-30T15:10:33.169Z,34.10
2019-03-30T15:13:01.962Z,34.50
2019-03-30T15:15:30.170Z,34.20
2019-03-30T15:18:05.959Z,34.70
2019-03-30T15:20:34.030Z,33.60
2019-03-30T15:23:02.312Z,34.20
2019-03-30T15:25:31.047Z,34.40
2019-03-30T15:27:59.380Z,34.50
2019-03-30T15:30:27.410Z,34.40
2019-03-30T15:32:55.537Z,34.30
2019-03-30T15:35:23.562Z,34.00
2019-03-30T15:37:51.615Z,34.00
2019-03-30T15:40:19.697Z,34.30
2019-03-30T15:42:47.688Z,33.80
2019-03-30T15:45:15.796Z,34.20
2019-03-30T15:48:14.941Z,34.80
2019-03-30T15:50:18.548Z,34.70
2019-03-30T15:53:00.550Z,34.70
2019-03-30T15:55:24.871Z,34.70
2019-03-30T15:57:52.908Z,34.70
2019-03-30T16:00:21.313Z,34.80
2019-03-30T16:03:15.280Z,34.70
2019-03-30T16:05:43.897Z,35.20
2019-03-30T16:08:16.536Z,34.80
2019-03-30T16:10:52.141Z,34.90
2019-03-30T16:13:24.836Z,35.30
2019-03-30T16:16:13.139Z,34.90
2019-03-30T16:18:48.515Z,34.50
2019-03-30T16:21:31.948Z,34.70
2019-03-30T16:24:14.800Z,34.90
2019-03-30T16:26:52.437Z,34.60
2019-03-30T16:32:33.130Z,34.10
2019-03-30T16:35:30.393Z,34.90
2019-03-30T16:38:15.144Z,34.20
2019-03-30T16:40:58.657Z,34.10
2019-03-30T16:43:31.901Z,34.20
2019-03-30T16:46:13.160Z,36.70
2019-03-30T16:49:00.795Z,38.50
2019-03-30T16:51:57.774Z,39.20
2019-03-30T16:54:26.797Z,40.00
2019-03-30T16:57:43.511Z,40.20
2019-03-30T17:04:02.870Z,40.70
2019-03-30T17:06:39.162Z,40.60
2019-03-30T17:09:18.023Z,41.00
2019-03-30T17:11:49.743Z,40.80
2019-03-30T17:14:41.948Z,40.60
2019-03-30T17:17:18.993Z,41.00
2019-03-30T17:19:57.323Z,40.90
2019-03-30T17:22:25.490Z,41.80
2019-03-30T17:24:55.987Z,40.80
2019-03-30T17:27:27.463Z,40.80
2019-03-30T17:29:55.697Z,41.00
2019-03-30T17:32:23.800Z,41.10
2019-03-30T17:34:53.239Z,41.10
2019-03-30T17:37:21.636Z,41.30
2019-03-30T17:39:49.773Z,41.40
2019-03-30T17:42:17.808Z,41.50
2019-03-30T17:44:45.828Z,41.40
2019-03-30T17:47:13.863Z,41.60
2019-03-30T17:49:45.033Z,41.80
2019-03-30T17:52:16.049Z,41.70
2019-03-30T17:54:44.177Z,41.90
2019-03-30T17:57:12.313Z,42.10
2019-03-30T17:59:47.408Z,42.00
2019-03-30T18:02:15.589Z,42.20
2019-03-30T18:04:46.526Z,42.20
2019-03-30T18:07:14.594Z,42.80
2019-03-30T18:09:43.373Z,42.70
2019-03-30T18:12:11.941Z,42.70
2019-03-30T18:14:40.099Z,42.70
2019-03-30T18:17:08.388Z,42.80
2019-03-30T18:19:37.523Z,42.90
2019-03-30T18:22:05.730Z,43.00
2019-03-30T18:24:34.155Z,43.60
2019-03-30T18:27:02.531Z,43.50
2019-03-30T18:29:33.089Z,44.10
2019-03-30T18:32:01.740Z,44.30
2019-03-30T18:34:38.656Z,44.70
2019-03-30T18:37:16.781Z,45.20
2019-03-30T18:39:45.398Z,45.70
2019-03-30T18:42:13.626Z,46.20
2019-03-30T18:44:52.050Z,46.40
2019-03-30T18:47:20.149Z,46.70
2019-03-30T18:49:48.269Z,47.10
2019-03-30T18:52:17.223Z,47.20
2019-03-30T18:54:45.865Z,47.50
2019-03-30T18:57:18.524Z,48.50
2019-03-30T18:59:47.096Z,49.20
2019-03-30T19:02:15.290Z,49.80
2019-03-30T19:04:43.725Z,50.00
2019-03-30T19:07:11.763Z,50.00
2019-03-30T19:09:40.380Z,50.00
2019-03-30T19:12:08.385Z,50.00
2019-03-30T19:14:36.493Z,50.20
2019-03-30T19:17:04.671Z,50.40
2019-03-30T19:19:32.716Z,50.60
2019-03-30T19:22:03.915Z,50.90
2019-03-30T19:24:31.986Z,51.00
2019-03-30T19:27:01.442Z,51.10
2019-03-30T19:29:29.693Z,51.40
2019-03-30T19:31:57.766Z,52.00
2019-03-30T19:34:26.108Z,52.20
2019-03-30T19:36:54.189Z,52.40
2019-03-30T19:39:22.959Z,52.80
2019-03-30T19:41:53.325Z,52.90
2019-03-30T19:44:21.528Z,53.40
2019-03-30T19:46:49.508Z,53.30
2019-03-30T19:49:17.600Z,53.70
2019-03-30T19:51:45.681Z,54.10
2019-03-30T19:54:13.716Z,54.10
2019-03-30T19:56:42.134Z,54.30
2019-03-30T19:59:11.417Z,54.40
2019-03-30T20:01:39.603Z,55.00
2019-03-30T20:04:08.040Z,55.10
2019-03-30T20:06:36.150Z,55.20
2019-03-30T20:09:09.239Z,56.00
2019-03-30T20:11:40.106Z,56.40
2019-03-30T20:14:08.206Z,56.70
2019-03-30T20:16:36.280Z,57.00
2019-03-30T20:19:12.134Z,57.10
2019-03-30T20:21:34.761Z,57.30
2019-03-30T20:24:03.027Z,57.70
2019-03-30T20:26:32.197Z,58.00
2019-03-30T20:29:00.465Z,58.20
2019-03-30T20:31:28.898Z,58.30
2019-03-30T20:33:57.180Z,58.40
2019-03-30T20:36:27.933Z,58.60
2019-03-30T20:38:56.095Z,58.90
2019-03-30T20:41:24.170Z,58.70
2019-03-30T20:43:55.009Z,58.70
2019-03-30T20:46:23.912Z,59.00
2019-03-30T20:48:51.956Z,59.20
2019-03-30T20:51:20.016Z,59.20
2019-03-30T20:53:48.365Z,59.60
2019-03-30T20:56:16.520Z,60.50
2019-03-30T20:58:44.557Z,60.00
2019-03-30T21:01:12.725Z,60.10
2019-03-30T21:03:40.874Z,60.40
2019-03-30T21:06:13.021Z,60.60
2019-03-30T21:08:41.415Z,61.10
2019-03-30T21:11:09.492Z,61.10
2019-03-30T21:13:37.581Z,61.50
2019-03-30T21:16:06.005Z,61.70
2019-03-30T21:18:35.074Z,62.30
2019-03-30T21:21:09.000Z,62.90
2019-03-30T21:23:36.192Z,63.00
2019-03-30T21:26:04.473Z,63.30
2019-03-30T21:28:32.776Z,63.70
2019-03-30T21:31:01.434Z,63.90
2019-03-30T21:33:30.071Z,64.20
2019-03-30T21:35:58.432Z,64.70
2019-03-30T21:38:26.703Z,65.00
2019-03-30T21:40:55.462Z,65.80
2019-03-30T21:43:23.680Z,65.90
2019-03-30T21:45:52.332Z,66.10
2019-03-30T21:48:20.521Z,66.60
2019-03-30T21:50:48.828Z,66.70
2019-03-30T21:53:18.799Z,66.70
2019-03-30T21:55:47.025Z,67.10
2019-03-30T21:58:15.175Z,67.50
2019-03-30T22:00:44.083Z,67.90
2019-03-30T22:03:14.778Z,68.60
2019-03-30T22:05:44.253Z,69.30
2019-03-30T22:08:12.913Z,69.30
2019-03-30T22:10:41.175Z,69.60
2019-03-30T22:13:09.668Z,69.50
2019-03-30T22:15:37.918Z,69.50
2019-03-30T22:18:08.401Z,69.70
2019-03-30T22:20:36.813Z,69.60
2019-03-30T22:23:05.323Z,69.90
2019-03-30T22:25:34.789Z,70.30
2019-03-30T22:28:03.279Z,70.50
2019-03-30T22:30:31.703Z,70.70
2019-03-30T22:33:02.475Z,71.10
2019-03-30T22:35:31.105Z,71.30
2019-03-30T22:37:59.640Z,71.40
2019-03-30T22:40:28.080Z,71.80
2019-03-30T22:42:57.779Z,71.80
2019-03-30T22:45:26.301Z,71.90
2019-03-30T22:47:54.672Z,72.20
2019-03-30T22:50:23.960Z,72.30
2019-03-30T22:52:52.165Z,72.50
2019-03-30T22:55:20.570Z,72.20
2019-03-30T22:57:48.888Z,72.50
2019-03-30T23:00:38.861Z,72.40
2019-03-30T23:03:07.050Z,72.20
2019-03-30T23:05:35.318Z,72.60
2019-03-30T23:08:03.656Z,73.30
2019-03-30T23:10:32.235Z,73.40
2019-03-30T23:13:03.802Z,73.50
2019-03-30T23:15:38.127Z,73.50
2019-03-30T23:18:06.603Z,73.80
2019-03-30T23:20:34.951Z,74.00
2019-03-30T23:23:10.350Z,74.10
2019-03-30T23:25:38.751Z,74.30
2019-03-30T23:28:11.299Z,74.70
2019-03-30T23:30:53.523Z,74.50
2019-03-30T23:33:10.843Z,74.80
2019-03-30T23:35:39.407Z,75.00
2019-03-30T23:38:07.864Z,75.30
2019-03-30T23:40:36.382Z,76.00
2019-03-30T23:43:04.479Z,76.20
2019-03-30T23:45:32.616Z,76.60
2019-03-30T23:48:01.300Z,77.00
2019-03-30T23:50:30.454Z,77.50
2019-03-30T23:52:59.777Z,77.70
2019-03-30T23:55:27.852Z,78.10
2019-03-30T23:57:56.002Z,78.10
